Pamlico — WX6900 — position and weather

sailwx.info

Track history (hours):
 
Tides and Currents Weather Stations Pressure Air Temp Water Temp Dewpoint Dewpoint Depression Visibility Wind Speed Wind Dir Waves Ship Positions

Pamlico

Owner: PCS Phosphate, AURORA, NC. More information available from US FCC via Universal Licensing System and Coast Guard Vessel Documentation Center.

Last reported at 2017-Apr-24 14:51 UTC. Time now 2017-Apr-25 20:20 UTC.
Position N 34°59' W 076°41'.

; draft 2 m.

Type: Tug. MMSI: 367361220.

Date/timePositionNaut miles runAvg speedWind from/ knotsBaromVisibWave heightAir tempDewpointWater temp
2017-Apr-24 14:51N 34°59' W 076°41'3 7.4
2017-Apr-24 14:30N 34°57' W 076°40'7 7.0
2017-Apr-24 13:31N 34°50' W 076°41'4 7.4
2017-Apr-24 13:01N 34°46' W 076°41'3 5.5
2017-Apr-24 12:30N 34°43' W 076°42'0 0.3
2017-Apr-24 12:01N 34°43' W 076°42'0 0.0
2017-Apr-24 11:31N 34°43' W 076°42'0 0.0
2017-Apr-24 11:01N 34°43' W 076°42'0 0.0
2017-Apr-24 10:31N 34°43' W 076°42'0 0.0
2017-Apr-24 10:01N 34°43' W 076°42'0 0.0
2017-Apr-24 09:31N 34°43' W 076°42'0 0.0
2017-Apr-24 09:00N 34°43' W 076°42'0 0.0
2017-Apr-24 08:31N 34°43' W 076°42'0 0.0
2017-Apr-24 08:01N 34°43' W 076°42'0 0.0
2017-Apr-24 07:30N 34°43' W 076°42'0 0.1
2017-Apr-24 07:01N 34°43' W 076°42'0 0.1
2017-Apr-24 06:31N 34°43' W 076°42'2 3.0
2017-Apr-24 06:01N 34°45' W 076°41'3 5.3
2017-Apr-24 05:30N 34°47' W 076°41'4 7.1
2017-Apr-24 05:01N 34°51' W 076°41'3 6.6
2017-Apr-24 04:30N 34°54' W 076°41'3 5.8
2017-Apr-24 04:00N 34°57' W 076°40'  
2017-Apr-18 09:59N 34°59' W 076°42'3 7.3
2017-Apr-18 09:30N 34°56' W 076°39'3 7.0
2017-Apr-18 09:00N 34°53' W 076°41'4 7.4
2017-Apr-18 08:30N 34°49' W 076°41'4 7.3
2017-Apr-18 08:00N 34°45' W 076°40'2 4.8
2017-Apr-18 07:30N 34°43' W 076°42'0 0.1
2017-Apr-18 07:00N 34°43' W 076°42'0 0.3
2017-Apr-18 06:30N 34°43' W 076°42'3 5.9
2017-Apr-18 06:00N 34°46' W 076°41'3 5.1
2017-Apr-18 05:30N 34°49' W 076°41'2 4.2
2017-Apr-18 05:00N 34°51' W 076°41'2 4.3
2017-Apr-18 04:30N 34°53' W 076°41'2 4.5
2017-Apr-18 04:00N 34°55' W 076°40'8 5.2
2017-Apr-18 02:31N 35°02' W 076°37'0 6.9
2017-Apr-18 02:29N 35°02' W 076°37'5 6.9
2017-Apr-18 01:49N 35°05' W 076°32'2 7.1
2017-Apr-18 01:28N 35°07' W 076°31'3 5.6
2017-Apr-18 00:56N 35°10' W 076°32'  
Track history (hours):
 
Tides and Currents Weather Stations Pressure Air Temp Water Temp Dewpoint Dewpoint Depression Visibility Wind Speed Wind Dir Waves Ship Positions

Pamlico

Owner: PCS Phosphate, AURORA, NC. More information available from US FCC via Universal Licensing System and Coast Guard Vessel Documentation Center.

Last reported at 2017-Apr-24 14:51 UTC. Time now 2017-Apr-25 20:20 UTC.
Position N 34°59' W 076°41'.

; draft 2 m.

Type: Tug. MMSI: 367361220.

Date/timePositionNaut miles runAvg speedWind from/ knotsBaromVisibWave heightAir tempDewpointWater temp
2017-Apr-24 14:51N 34°59' W 076°41'3 7.4
2017-Apr-24 14:30N 34°57' W 076°40'7 7.0
2017-Apr-24 13:31N 34°50' W 076°41'4 7.4
2017-Apr-24 13:01N 34°46' W 076°41'3 5.5
2017-Apr-24 12:30N 34°43' W 076°42'0 0.3
2017-Apr-24 12:01N 34°43' W 076°42'0 0.0
2017-Apr-24 11:31N 34°43' W 076°42'0 0.0
2017-Apr-24 11:01N 34°43' W 076°42'0 0.0
2017-Apr-24 10:31N 34°43' W 076°42'0 0.0
2017-Apr-24 10:01N 34°43' W 076°42'0 0.0
2017-Apr-24 09:31N 34°43' W 076°42'0 0.0
2017-Apr-24 09:00N 34°43' W 076°42'0 0.0
2017-Apr-24 08:31N 34°43' W 076°42'0 0.0
2017-Apr-24 08:01N 34°43' W 076°42'0 0.0
2017-Apr-24 07:30N 34°43' W 076°42'0 0.1
2017-Apr-24 07:01N 34°43' W 076°42'0 0.1
2017-Apr-24 06:31N 34°43' W 076°42'2 3.0
2017-Apr-24 06:01N 34°45' W 076°41'3 5.3
2017-Apr-24 05:30N 34°47' W 076°41'4 7.1
2017-Apr-24 05:01N 34°51' W 076°41'3 6.6
2017-Apr-24 04:30N 34°54' W 076°41'3 5.8
2017-Apr-24 04:00N 34°57' W 076°40'  
2017-Apr-18 09:59N 34°59' W 076°42'3 7.3
2017-Apr-18 09:30N 34°56' W 076°39'3 7.0
2017-Apr-18 09:00N 34°53' W 076°41'4 7.4
2017-Apr-18 08:30N 34°49' W 076°41'4 7.3
2017-Apr-18 08:00N 34°45' W 076°40'2 4.8
2017-Apr-18 07:30N 34°43' W 076°42'0 0.1
2017-Apr-18 07:00N 34°43' W 076°42'0 0.3
2017-Apr-18 06:30N 34°43' W 076°42'3 5.9
2017-Apr-18 06:00N 34°46' W 076°41'3 5.1
2017-Apr-18 05:30N 34°49' W 076°41'2 4.2
2017-Apr-18 05:00N 34°51' W 076°41'2 4.3
2017-Apr-18 04:30N 34°53' W 076°41'2 4.5
2017-Apr-18 04:00N 34°55' W 076°40'8 5.2
2017-Apr-18 02:31N 35°02' W 076°37'0 6.9
2017-Apr-18 02:29N 35°02' W 076°37'5 6.9
2017-Apr-18 01:49N 35°05' W 076°32'2 7.1
2017-Apr-18 01:28N 35°07' W 076°31'3 5.6
2017-Apr-18 00:56N 35°10' W 076°32'  

Dump ship's entire track history